createdAt,value
2018-08-06T00:00:50.242Z,20.20
2018-08-06T00:03:18.571Z,20.17
2018-08-06T00:05:46.986Z,20.14
2018-08-06T00:08:15.345Z,20.12
2018-08-06T00:10:43.672Z,20.09
2018-08-06T00:13:12.105Z,20.03
2018-08-06T00:15:40.508Z,20.00
2018-08-06T00:18:08.855Z,19.96
2018-08-06T00:20:37.204Z,19.92
2018-08-06T00:23:05.564Z,19.87
2018-08-06T00:25:33.873Z,19.80
2018-08-06T00:28:02.247Z,19.72
2018-08-06T00:30:30.595Z,19.64
2018-08-06T00:32:59.067Z,19.60
2018-08-06T00:35:27.832Z,19.55
2018-08-06T00:37:56.224Z,19.53
2018-08-06T00:40:24.568Z,19.50
2018-08-06T00:42:52.958Z,19.42
2018-08-06T00:45:22.010Z,19.32
2018-08-06T00:47:50.856Z,19.24
2018-08-06T00:50:19.166Z,19.16
2018-08-06T00:52:47.493Z,19.09
2018-08-06T00:55:17.675Z,19.04
2018-08-06T00:57:46.032Z,19.01
2018-08-06T01:00:18.834Z,18.96
2018-08-06T01:02:47.207Z,18.94
2018-08-06T01:05:16.049Z,18.96
2018-08-06T01:07:44.903Z,19.02
2018-08-06T01:10:14.663Z,19.07
2018-08-06T01:12:43.081Z,19.13
2018-08-06T01:15:13.470Z,19.11
2018-08-06T01:17:41.965Z,19.02
2018-08-06T01:20:12.014Z,18.95
2018-08-06T01:22:40.967Z,18.92
2018-08-06T01:25:09.366Z,18.91
2018-08-06T01:27:38.013Z,18.83
2018-08-06T01:30:07.769Z,18.81
2018-08-06T01:32:36.526Z,18.73
2018-08-06T01:35:05.473Z,18.66
2018-08-06T01:37:33.999Z,18.64
2018-08-06T01:40:02.343Z,18.62
2018-08-06T01:42:30.728Z,18.58
2018-08-06T01:44:59.119Z,18.56
2018-08-06T01:47:27.461Z,18.49
2018-08-06T01:49:55.769Z,18.49
2018-08-06T01:52:24.173Z,18.49
2018-08-06T01:54:52.494Z,18.49
2018-08-06T01:57:20.954Z,18.47
2018-08-06T01:59:49.271Z,18.48
2018-08-06T02:02:17.621Z,18.50
2018-08-06T02:04:45.934Z,18.50
2018-08-06T02:07:14.281Z,18.44
2018-08-06T02:09:42.584Z,18.30
2018-08-06T02:12:11.026Z,18.24
2018-08-06T02:14:39.378Z,18.18
2018-08-06T02:17:07.789Z,18.17
2018-08-06T02:19:36.110Z,18.17
2018-08-06T02:22:04.500Z,18.13
2018-08-06T02:24:32.876Z,18.06
2018-08-06T02:27:01.216Z,18.06
2018-08-06T02:29:29.695Z,18.08
2018-08-06T02:31:58.157Z,18.05
2018-08-06T02:34:26.477Z,18.02
2018-08-06T02:36:54.863Z,18.03
2018-08-06T02:39:23.216Z,18.03
2018-08-06T02:41:51.578Z,17.98
2018-08-06T02:44:19.995Z,17.98
2018-08-06T02:46:48.321Z,18.00
2018-08-06T02:49:16.696Z,18.01
2018-08-06T02:51:45.103Z,18.01
2018-08-06T02:54:13.427Z,17.96
2018-08-06T02:56:41.817Z,17.91
2018-08-06T02:59:10.226Z,17.90
2018-08-06T03:01:38.559Z,17.92
2018-08-06T03:04:06.958Z,17.90
2018-08-06T03:06:35.279Z,17.86
2018-08-06T03:09:04.125Z,17.79
2018-08-06T03:11:32.459Z,17.74
2018-08-06T03:14:00.819Z,17.78
2018-08-06T03:16:29.153Z,17.80
2018-08-06T03:18:57.527Z,17.81
2018-08-06T03:21:25.930Z,17.77
2018-08-06T03:23:54.292Z,17.75
2018-08-06T03:26:22.616Z,17.73
2018-08-06T03:28:51.044Z,17.71
2018-08-06T03:31:19.386Z,17.65
2018-08-06T03:33:47.712Z,17.59
2018-08-06T03:36:16.077Z,17.62
2018-08-06T03:38:44.383Z,17.61
2018-08-06T03:41:12.835Z,17.59
2018-08-06T03:43:41.143Z,17.58
2018-08-06T03:46:09.466Z,17.62
2018-08-06T03:48:37.800Z,17.65
2018-08-06T03:51:06.136Z,17.69
2018-08-06T03:53:34.469Z,17.67
2018-08-06T03:56:02.873Z,17.66
2018-08-06T03:58:31.232Z,17.65
2018-08-06T04:00:59.617Z,17.64
2018-08-06T04:03:27.956Z,17.63
2018-08-06T04:05:56.335Z,17.62
2018-08-06T04:08:24.810Z,17.59
2018-08-06T04:10:53.214Z,17.57
2018-08-06T04:13:21.596Z,17.52
2018-08-06T04:15:49.943Z,17.49
2018-08-06T04:18:18.363Z,17.50
2018-08-06T04:20:46.763Z,17.54
2018-08-06T04:23:15.144Z,17.59
2018-08-06T04:25:43.493Z,17.62
2018-08-06T04:28:11.835Z,17.60
2018-08-06T04:30:40.236Z,17.62
2018-08-06T04:33:08.713Z,17.73
2018-08-06T04:35:36.959Z,18.01
2018-08-06T04:38:05.495Z,18.41
2018-08-06T04:40:33.817Z,18.86
2018-08-06T04:43:02.116Z,19.16
2018-08-06T04:45:30.451Z,19.17
2018-08-06T04:47:58.860Z,19.06
2018-08-06T04:50:27.199Z,19.19
2018-08-06T04:52:55.540Z,19.32
2018-08-06T04:55:23.864Z,19.34
2018-08-06T04:57:52.792Z,19.34
2018-08-06T05:00:21.084Z,19.60
2018-08-06T05:02:49.462Z,19.94
2018-08-06T05:05:17.853Z,20.25
2018-08-06T05:07:46.213Z,20.47
2018-08-06T05:10:14.533Z,20.58
2018-08-06T05:12:42.941Z,20.76
2018-08-06T05:15:11.331Z,20.98
2018-08-06T05:17:39.665Z,21.23
2018-08-06T05:20:08.028Z,21.32
2018-08-06T05:22:36.386Z,21.48
2018-08-06T05:25:05.186Z,21.71
2018-08-06T05:27:33.516Z,21.97
2018-08-06T05:30:01.880Z,22.18
2018-08-06T05:32:30.239Z,22.40
2018-08-06T05:34:58.577Z,22.69
2018-08-06T05:37:27.004Z,23.04
2018-08-06T05:39:55.364Z,23.05
2018-08-06T05:42:23.703Z,23.13
2018-08-06T05:44:52.095Z,23.05
2018-08-06T05:47:20.411Z,23.09
2018-08-06T05:49:48.748Z,23.09
2018-08-06T05:52:17.111Z,23.01
2018-08-06T05:54:45.575Z,22.81
2018-08-06T05:57:13.950Z,22.85
2018-08-06T05:59:42.306Z,22.76
2018-08-06T06:02:10.639Z,22.66
2018-08-06T06:04:38.995Z,22.65
2018-08-06T06:07:07.773Z,22.53
2018-08-06T06:09:36.117Z,22.58
2018-08-06T06:12:04.511Z,22.56
2018-08-06T06:14:32.860Z,22.60
2018-08-06T06:17:01.209Z,22.72
2018-08-06T06:19:29.537Z,22.80
2018-08-06T06:21:57.913Z,22.78
2018-08-06T06:24:26.284Z,22.65
2018-08-06T06:26:54.642Z,22.56
2018-08-06T06:29:23.022Z,22.44
2018-08-06T06:31:51.348Z,22.36
2018-08-06T06:34:19.735Z,22.30
2018-08-06T06:36:48.079Z,22.24
2018-08-06T06:39:16.453Z,22.25
2018-08-06T06:41:44.882Z,22.22
2018-08-06T06:44:13.236Z,22.25
2018-08-06T06:46:41.613Z,22.22
2018-08-06T06:49:10.378Z,22.15
2018-08-06T06:51:38.705Z,22.15
2018-08-06T06:54:07.626Z,22.26
2018-08-06T06:56:36.037Z,22.38
2018-08-06T06:59:04.517Z,22.49
2018-08-06T07:01:33.010Z,22.50
2018-08-06T07:04:01.359Z,22.54
2018-08-06T07:06:29.844Z,22.61
2018-08-06T07:08:58.185Z,22.63
2018-08-06T07:11:26.596Z,22.66
2018-08-06T07:13:55.043Z,22.71
2018-08-06T07:16:23.356Z,22.72
2018-08-06T07:18:51.836Z,22.78
2018-08-06T07:21:20.215Z,22.84
2018-08-06T07:23:48.622Z,22.83
2018-08-06T07:26:16.982Z,22.82
2018-08-06T07:28:45.367Z,22.86
2018-08-06T07:31:13.699Z,22.96
2018-08-06T07:33:42.096Z,23.05
2018-08-06T07:36:10.422Z,23.10
2018-08-06T07:38:38.797Z,23.13
2018-08-06T07:41:07.157Z,23.18
2018-08-06T07:43:35.556Z,23.22
2018-08-06T07:46:03.879Z,23.31
2018-08-06T07:48:32.532Z,23.32
2018-08-06T07:51:00.862Z,23.33
2018-08-06T07:53:29.205Z,23.41
2018-08-06T07:55:57.516Z,23.50
2018-08-06T07:58:25.906Z,23.61
2018-08-06T08:00:54.239Z,23.73
2018-08-06T08:03:22.648Z,23.82
2018-08-06T08:05:51.031Z,23.93
2018-08-06T08:08:19.456Z,24.00
2018-08-06T08:10:47.842Z,24.05
2018-08-06T08:13:16.242Z,24.12
2018-08-06T08:15:44.648Z,24.25
2018-08-06T08:18:13.121Z,24.33
2018-08-06T08:20:41.535Z,24.38
2018-08-06T08:23:09.871Z,24.42
2018-08-06T08:25:38.253Z,24.42
2018-08-06T08:28:06.569Z,24.44
2018-08-06T08:30:34.957Z,24.44
2018-08-06T08:33:03.265Z,24.50
2018-08-06T08:35:32.652Z,24.57
2018-08-06T08:38:01.352Z,24.68
2018-08-06T08:40:29.878Z,24.78
2018-08-06T08:42:58.219Z,24.83
2018-08-06T08:45:26.792Z,24.86
2018-08-06T08:47:55.187Z,24.93
2018-08-06T08:50:23.572Z,25.00
2018-08-06T08:52:51.947Z,25.05
2018-08-06T08:55:20.990Z,25.10
2018-08-06T08:57:49.359Z,25.19
2018-08-06T09:00:19.493Z,25.27
2018-08-06T09:02:48.904Z,25.30
2018-08-06T09:05:18.077Z,25.30
2018-08-06T09:07:46.818Z,25.29
2018-08-06T09:10:16.506Z,25.34
2018-08-06T09:12:45.105Z,25.45
2018-08-06T09:15:24.637Z,25.54
2018-08-06T09:17:53.117Z,25.65
2018-08-06T09:20:21.801Z,25.74
2018-08-06T09:22:50.144Z,25.83
2018-08-06T09:25:18.577Z,25.97
2018-08-06T09:27:48.249Z,26.20
2018-08-06T09:30:19.005Z,26.29
2018-08-06T09:32:48.812Z,26.32
2018-08-06T09:35:18.020Z,26.25
2018-08-06T09:37:46.364Z,26.24
2018-08-06T09:40:16.049Z,26.23
2018-08-06T09:42:45.185Z,26.25
2018-08-06T09:45:14.825Z,26.23
2018-08-06T09:47:44.403Z,26.21
2018-08-06T09:50:13.595Z,26.28
2018-08-06T09:52:42.805Z,26.41
2018-08-06T09:55:14.656Z,26.49
2018-08-06T09:57:43.416Z,26.57
2018-08-06T10:00:19.351Z,26.58
2018-08-06T10:02:48.596Z,26.57
2018-08-06T10:05:17.078Z,26.53
2018-08-06T10:07:45.988Z,26.54
2018-08-06T10:10:14.739Z,26.59
2018-08-06T10:12:43.847Z,26.71
2018-08-06T10:15:12.757Z,26.79
2018-08-06T10:17:41.610Z,26.93
2018-08-06T10:20:14.487Z,27.00
2018-08-06T10:22:42.857Z,27.09
2018-08-06T10:25:12.418Z,27.08
2018-08-06T10:27:41.582Z,27.06
2018-08-06T10:30:18.890Z,27.06
2018-08-06T10:32:47.343Z,27.08
2018-08-06T10:35:16.879Z,27.15
2018-08-06T10:37:45.463Z,27.27
2018-08-06T10:40:16.792Z,27.36
2018-08-06T10:42:45.689Z,27.40
2018-08-06T10:45:15.433Z,27.57
2018-08-06T10:47:43.969Z,27.73
2018-08-06T10:50:12.460Z,27.76
2018-08-06T10:52:40.958Z,27.82
2018-08-06T10:55:10.125Z,27.82
2018-08-06T10:57:39.270Z,27.83
2018-08-06T11:00:10.072Z,27.81
2018-08-06T11:02:38.448Z,27.77
2018-08-06T11:05:08.641Z,27.78
2018-08-06T11:07:37.178Z,27.86
2018-08-06T11:10:08.177Z,27.91
2018-08-06T11:12:37.153Z,27.88
2018-08-06T11:15:07.627Z,27.96
2018-08-06T11:17:36.251Z,28.04
2018-08-06T11:20:05.123Z,28.11
2018-08-06T11:22:33.469Z,28.23
2018-08-06T11:25:01.943Z,28.41
2018-08-06T11:27:30.568Z,28.54
2018-08-06T11:29:59.216Z,28.69
2018-08-06T11:32:27.797Z,28.66
2018-08-06T11:34:56.304Z,28.61
2018-08-06T11:37:25.235Z,28.58
2018-08-06T11:39:53.933Z,28.54
2018-08-06T11:42:22.292Z,28.46
2018-08-06T11:44:50.624Z,28.50
2018-08-06T11:47:19.001Z,28.55
2018-08-06T11:49:54.117Z,28.64
2018-08-06T11:52:22.491Z,28.76
2018-08-06T11:54:51.144Z,28.93
2018-08-06T11:57:19.577Z,29.04
2018-08-06T11:59:48.076Z,29.08
2018-08-06T12:02:16.392Z,29.12
2018-08-06T12:04:44.767Z,29.26
2018-08-06T12:07:13.122Z,29.38
2018-08-06T12:09:41.432Z,29.38
2018-08-06T12:12:09.776Z,29.48
2018-08-06T12:14:38.122Z,29.56
2018-08-06T12:17:06.480Z,29.61
2018-08-06T12:19:34.847Z,29.61
2018-08-06T12:22:03.207Z,29.55
2018-08-06T12:24:31.534Z,29.42
2018-08-06T12:26:59.884Z,29.41
2018-08-06T12:29:28.383Z,29.47
2018-08-06T12:31:57.483Z,29.55
2018-08-06T12:34:25.960Z,29.51
2018-08-06T12:36:54.327Z,29.53
2018-08-06T12:39:22.843Z,29.56
2018-08-06T12:41:51.189Z,29.53
2018-08-06T12:44:19.575Z,29.55
2018-08-06T12:46:47.938Z,29.57
2018-08-06T12:49:16.308Z,29.63
2018-08-06T12:51:44.820Z,29.65
2018-08-06T12:54:13.205Z,29.69
2018-08-06T12:56:41.571Z,29.71
2018-08-06T12:59:09.930Z,29.65
2018-08-06T13:01:38.328Z,29.66
2018-08-06T13:04:06.747Z,29.65
2018-08-06T13:06:35.118Z,29.79
2018-08-06T13:09:03.764Z,29.88
2018-08-06T13:11:32.084Z,29.95
2018-08-06T13:14:00.406Z,30.11
2018-08-06T13:16:28.759Z,30.21
2018-08-06T13:18:57.089Z,30.33
2018-08-06T13:21:25.409Z,30.37
2018-08-06T13:23:53.703Z,30.29
2018-08-06T13:26:22.041Z,30.25
2018-08-06T13:28:50.570Z,30.31
2018-08-06T13:31:19.016Z,30.37
2018-08-06T13:33:47.354Z,30.38
2018-08-06T13:36:15.718Z,30.32
2018-08-06T13:38:44.127Z,30.31
2018-08-06T13:41:12.487Z,30.34
2018-08-06T13:43:40.846Z,30.39
2018-08-06T13:46:09.234Z,30.47
2018-08-06T13:48:37.640Z,30.53
2018-08-06T13:51:06.040Z,30.66
2018-08-06T13:53:34.435Z,30.77
2018-08-06T13:56:03.342Z,30.81
2018-08-06T13:58:31.711Z,30.81
2018-08-06T14:01:00.092Z,30.73
2018-08-06T14:03:28.514Z,30.67
2018-08-06T14:05:56.823Z,30.68
2018-08-06T14:08:25.183Z,30.71
2018-08-06T14:10:53.556Z,30.62
2018-08-06T14:13:21.959Z,30.55
2018-08-06T14:15:50.321Z,30.57
2018-08-06T14:18:20.435Z,30.63
2018-08-06T14:20:48.824Z,30.66
2018-08-06T14:23:17.190Z,30.71
2018-08-06T14:25:45.495Z,30.72
2018-08-06T14:28:14.193Z,30.85
2018-08-06T14:30:49.170Z,30.85
2018-08-06T14:33:17.563Z,30.81
2018-08-06T14:35:45.900Z,30.72
2018-08-06T14:38:14.341Z,30.69
2018-08-06T14:40:43.081Z,30.73
2018-08-06T14:43:11.479Z,30.73
2018-08-06T14:45:39.871Z,30.76
2018-08-06T14:48:08.243Z,30.75
2018-08-06T14:50:36.613Z,30.75
2018-08-06T14:53:04.932Z,30.77
2018-08-06T14:55:33.312Z,30.80
2018-08-06T14:58:01.649Z,30.78
2018-08-06T15:00:30.032Z,30.78
2018-08-06T15:02:58.474Z,30.75
2018-08-06T15:05:26.986Z,30.71
2018-08-06T15:07:55.384Z,30.72
2018-08-06T15:10:23.677Z,30.74
2018-08-06T15:12:52.025Z,30.78
2018-08-06T15:15:20.971Z,30.85
2018-08-06T15:17:49.437Z,30.86
2018-08-06T15:20:19.543Z,30.81
2018-08-06T15:22:48.199Z,30.79
2018-08-06T15:25:22.350Z,30.86
2018-08-06T15:27:51.535Z,30.89
2018-08-06T15:30:20.021Z,30.90
2018-08-06T15:32:48.457Z,30.89
2018-08-06T15:35:16.810Z,30.89
2018-08-06T15:37:46.230Z,30.94
2018-08-06T15:40:18.400Z,30.93
2018-08-06T15:42:46.836Z,30.92
2018-08-06T15:45:15.444Z,30.92
2018-08-06T15:47:44.714Z,30.92
2018-08-06T15:50:18.298Z,30.96
2018-08-06T15:52:46.647Z,30.95
2018-08-06T15:55:15.260Z,30.86
2018-08-06T15:57:43.852Z,30.91
2018-08-06T16:00:14.578Z,30.92
2018-08-06T16:02:43.187Z,30.90
2018-08-06T16:05:18.141Z,30.85
2018-08-06T16:07:46.895Z,30.68
2018-08-06T16:10:15.646Z,30.66
2018-08-06T16:12:44.151Z,30.66
2018-08-06T16:15:13.759Z,30.60
2018-08-06T16:17:42.870Z,30.59
2018-08-06T16:20:14.272Z,30.61
2018-08-06T16:22:42.693Z,30.61
2018-08-06T16:25:12.005Z,30.61
2018-08-06T16:27:40.507Z,30.56
2018-08-06T16:30:13.244Z,30.53
2018-08-06T16:32:41.602Z,30.56
2018-08-06T16:35:09.917Z,30.58
2018-08-06T16:37:38.328Z,30.59
2018-08-06T16:40:07.866Z,30.60
2018-08-06T16:42:36.349Z,30.59
2018-08-06T16:45:05.338Z,30.56
2018-08-06T16:47:34.708Z,30.53
2018-08-06T16:50:03.157Z,30.56
2018-08-06T16:52:31.910Z,30.54
2018-08-06T16:55:00.629Z,30.48
2018-08-06T16:57:29.107Z,30.43
2018-08-06T16:59:57.468Z,30.44
2018-08-06T17:02:25.879Z,30.48
2018-08-06T17:04:54.273Z,30.52
2018-08-06T17:07:25.025Z,30.47
2018-08-06T17:09:53.754Z,30.42
2018-08-06T17:12:22.168Z,30.36
2018-08-06T17:14:53.320Z,30.34
2018-08-06T17:17:21.703Z,30.28
2018-08-06T17:19:50.056Z,30.19
2018-08-06T17:22:18.436Z,30.13
2018-08-06T17:24:46.754Z,30.13
2018-08-06T17:27:15.083Z,30.17
2018-08-06T17:29:43.449Z,30.16
2018-08-06T17:32:11.797Z,30.15
2018-08-06T17:34:40.148Z,30.21
2018-08-06T17:37:08.510Z,30.22
2018-08-06T17:39:36.886Z,30.20
2018-08-06T17:42:05.391Z,30.17
2018-08-06T17:44:33.733Z,30.16
2018-08-06T17:47:02.177Z,30.12
2018-08-06T17:49:30.528Z,30.08
2018-08-06T17:51:58.888Z,30.00
2018-08-06T17:54:28.328Z,29.90
2018-08-06T17:56:56.679Z,29.83
2018-08-06T17:59:25.027Z,29.84
2018-08-06T18:01:53.435Z,29.84
2018-08-06T18:04:21.808Z,29.77
2018-08-06T18:06:50.149Z,29.77
2018-08-06T18:09:18.493Z,29.73
2018-08-06T18:11:46.899Z,29.68
2018-08-06T18:14:15.318Z,29.64
2018-08-06T18:16:43.733Z,29.59
2018-08-06T18:19:12.164Z,29.61
2018-08-06T18:21:40.507Z,29.64
2018-08-06T18:24:08.915Z,29.72
2018-08-06T18:26:37.297Z,29.73
2018-08-06T18:29:05.846Z,29.68
2018-08-06T18:31:34.202Z,29.63
2018-08-06T18:34:02.614Z,29.56
2018-08-06T18:36:30.979Z,29.53
2018-08-06T18:38:59.373Z,29.48
2018-08-06T18:41:27.748Z,29.39
2018-08-06T18:43:56.141Z,29.28
2018-08-06T18:46:24.485Z,29.17
2018-08-06T18:48:52.851Z,29.07
2018-08-06T18:51:21.225Z,28.93
2018-08-06T18:53:49.609Z,28.78
2018-08-06T18:56:17.971Z,28.63
2018-08-06T18:58:46.402Z,28.52
2018-08-06T19:01:14.713Z,28.42
2018-08-06T19:03:43.079Z,28.32
2018-08-06T19:06:11.533Z,28.18
2018-08-06T19:08:39.875Z,28.01
2018-08-06T19:11:08.503Z,27.82
2018-08-06T19:13:42.469Z,27.64
2018-08-06T19:16:10.807Z,27.49
2018-08-06T19:18:44.456Z,27.40
2018-08-06T19:21:12.785Z,27.30
2018-08-06T19:23:41.155Z,27.24
2018-08-06T19:26:15.913Z,27.17
2018-08-06T19:28:44.228Z,27.11
2018-08-06T19:31:18.041Z,27.05
2018-08-06T19:33:46.365Z,26.96
2018-08-06T19:36:14.717Z,26.90
2018-08-06T19:38:43.049Z,26.83
2018-08-06T19:41:11.490Z,26.75
2018-08-06T19:43:40.405Z,26.63
2018-08-06T19:46:09.379Z,26.50
2018-08-06T19:48:37.808Z,26.40
2018-08-06T19:51:06.343Z,26.29
2018-08-06T19:53:34.727Z,26.18
2018-08-06T19:56:08.346Z,26.06
2018-08-06T19:58:37.155Z,25.96
2018-08-06T20:01:05.501Z,25.88
2018-08-06T20:03:33.993Z,25.81
2018-08-06T20:06:02.411Z,25.73
2018-08-06T20:08:30.827Z,25.66
2018-08-06T20:10:59.221Z,25.57
2018-08-06T20:13:27.591Z,25.48
2018-08-06T20:15:56.076Z,25.41
2018-08-06T20:18:24.460Z,25.37
2018-08-06T20:20:52.931Z,25.34
2018-08-06T20:23:21.367Z,25.27
2018-08-06T20:25:50.232Z,25.16
2018-08-06T20:28:18.556Z,25.07
2018-08-06T20:30:46.984Z,25.04
2018-08-06T20:33:15.300Z,25.01
2018-08-06T20:35:43.701Z,24.95
2018-08-06T20:38:12.057Z,24.87
2018-08-06T20:40:40.425Z,24.78
2018-08-06T20:43:08.770Z,24.70
2018-08-06T20:45:37.199Z,24.69
2018-08-06T20:48:05.816Z,24.65
2018-08-06T20:50:34.197Z,24.58
2018-08-06T20:53:02.580Z,24.50
2018-08-06T20:55:30.941Z,24.45
2018-08-06T20:57:59.345Z,24.45
2018-08-06T21:00:27.730Z,24.43
2018-08-06T21:02:56.141Z,24.38
2018-08-06T21:05:24.527Z,24.34
2018-08-06T21:07:52.977Z,24.27
2018-08-06T21:10:21.485Z,24.19
2018-08-06T21:12:50.064Z,24.09
2018-08-06T21:15:18.448Z,24.06
2018-08-06T21:17:46.804Z,24.04
2018-08-06T21:20:16.648Z,23.96
2018-08-06T21:22:46.278Z,23.92
2018-08-06T21:25:14.850Z,23.88
2018-08-06T21:27:44.325Z,23.84
2018-08-06T21:30:17.714Z,23.79
2018-08-06T21:32:48.850Z,23.77
2018-08-06T21:35:18.184Z,23.74
2018-08-06T21:37:47.614Z,23.74
2018-08-06T21:40:16.218Z,23.71
2018-08-06T21:42:44.610Z,23.67
2018-08-06T21:45:12.961Z,23.62
2018-08-06T21:47:41.553Z,23.56
2018-08-06T21:50:10.836Z,23.52
2018-08-06T21:52:39.234Z,23.49
2018-08-06T21:55:07.908Z,23.45
2018-08-06T21:57:36.219Z,23.34
2018-08-06T22:00:09.719Z,23.29
2018-08-06T22:02:38.131Z,23.22
2018-08-06T22:05:07.725Z,23.14
2018-08-06T22:07:36.129Z,23.13
2018-08-06T22:10:04.941Z,23.17
2018-08-06T22:12:33.344Z,23.18
2018-08-06T22:15:01.743Z,23.18
2018-08-06T22:17:30.220Z,23.16
2018-08-06T22:19:58.601Z,23.12
2018-08-06T22:22:26.966Z,23.06
2018-08-06T22:24:55.339Z,22.95
2018-08-06T22:27:23.720Z,22.80
2018-08-06T22:29:52.055Z,22.68
2018-08-06T22:34:21.473Z,22.57
2018-08-06T22:36:49.856Z,22.57
2018-08-06T22:39:18.246Z,22.58
2018-08-06T22:41:46.631Z,22.58
2018-08-06T22:44:14.991Z,22.61
2018-08-06T22:46:43.365Z,22.66
2018-08-06T22:49:11.712Z,22.69
2018-08-06T22:51:40.052Z,22.66
2018-08-06T22:54:08.478Z,22.58
2018-08-06T22:56:36.837Z,22.56
2018-08-06T22:59:05.204Z,22.55
2018-08-06T23:01:33.545Z,22.55
2018-08-06T23:04:01.888Z,22.50
2018-08-06T23:06:30.278Z,22.50
2018-08-06T23:08:58.619Z,22.49
2018-08-06T23:11:27.000Z,22.49
2018-08-06T23:13:55.363Z,22.48
2018-08-06T23:16:23.764Z,22.47
2018-08-06T23:18:52.113Z,22.48
2018-08-06T23:21:20.398Z,22.45
2018-08-06T23:23:48.737Z,22.38
2018-08-06T23:26:17.095Z,22.26
2018-08-06T23:28:45.561Z,22.15
2018-08-06T23:31:13.901Z,22.07
2018-08-06T23:33:42.363Z,22.03
2018-08-06T23:36:10.743Z,21.99
2018-08-06T23:38:39.117Z,21.98
2018-08-06T23:41:07.613Z,21.99
2018-08-06T23:43:35.936Z,22.00
2018-08-06T23:46:04.292Z,22.02
2018-08-06T23:48:32.702Z,22.05
2018-08-06T23:51:01.045Z,22.00
2018-08-06T23:53:29.391Z,21.99
2018-08-06T23:55:57.758Z,21.93
2018-08-06T23:58:26.109Z,21.83
